createdAt,value
2023-05-05T00:01:53.713Z,100622.59
2023-05-05T00:04:22.885Z,100613.91
2023-05-05T00:06:50.851Z,100618.22
2023-05-05T00:09:18.406Z,100606.38
2023-05-05T00:11:45.453Z,100611.31
2023-05-05T00:14:13.561Z,100603.00
2023-05-05T00:16:40.588Z,100600.56
2023-05-05T00:19:08.180Z,100601.00
2023-05-05T00:21:35.143Z,100604.16
2023-05-05T00:24:02.139Z,100593.16
2023-05-05T00:26:29.088Z,100606.00
2023-05-05T00:28:56.322Z,100598.97
2023-05-05T00:31:24.047Z,100597.94
2023-05-05T00:33:51.242Z,100599.00
2023-05-05T00:36:18.720Z,100592.38
2023-05-05T00:38:45.712Z,100604.19
2023-05-05T00:41:12.814Z,100600.25
2023-05-05T00:43:39.719Z,100588.22
2023-05-05T00:46:14.826Z,100597.97
2023-05-05T00:48:42.053Z,100588.44
2023-05-05T00:51:10.552Z,100590.91
2023-05-05T00:53:39.948Z,100587.41
2023-05-05T00:56:08.052Z,100599.19
2023-05-05T00:58:36.846Z,100598.97
2023-05-05T01:01:03.753Z,100602.53
2023-05-05T01:03:30.913Z,100594.44
2023-05-05T01:06:16.758Z,100598.38
2023-05-05T01:09:17.685Z,100593.41
2023-05-05T01:12:15.526Z,100589.06
2023-05-05T01:14:47.534Z,100598.97
2023-05-05T01:17:19.010Z,100601.84
2023-05-05T01:20:18.265Z,100600.16
2023-05-05T01:22:53.430Z,100597.91
2023-05-05T01:25:41.743Z,100595.81
2023-05-05T01:28:28.761Z,100599.53
2023-05-05T01:31:14.964Z,100599.75
2023-05-05T01:33:49.850Z,100599.75
2023-05-05T01:36:23.725Z,100600.13
2023-05-05T01:38:57.344Z,100602.22
2023-05-05T01:41:41.394Z,100598.88
2023-05-05T01:44:11.065Z,100594.31
2023-05-05T01:46:38.249Z,100594.94
2023-05-05T01:49:08.715Z,100593.28
2023-05-05T01:51:37.212Z,100588.91
2023-05-05T01:54:09.053Z,100589.94
2023-05-05T01:56:40.466Z,100594.97
2023-05-05T01:59:09.074Z,100587.97
2023-05-05T02:01:41.159Z,100589.25
2023-05-05T02:04:10.091Z,100591.13
2023-05-05T02:06:40.055Z,100596.13
2023-05-05T02:09:08.636Z,100595.25
2023-05-05T02:11:35.896Z,100597.34
2023-05-05T02:14:03.528Z,100600.22
2023-05-05T02:16:31.431Z,100599.38
2023-05-05T02:19:04.869Z,100596.06
2023-05-05T02:21:32.899Z,100587.56
2023-05-05T02:24:00.331Z,100590.44
2023-05-05T02:26:30.496Z,100590.63
2023-05-05T02:29:08.103Z,100590.81
2023-05-05T02:31:44.414Z,100596.19
2023-05-05T02:34:16.484Z,100590.38
2023-05-05T02:36:44.913Z,100588.31
2023-05-05T02:39:22.168Z,100592.25
2023-05-05T02:41:51.495Z,100583.34
2023-05-05T02:44:28.043Z,100576.28
2023-05-05T02:46:56.680Z,100575.84
2023-05-05T02:49:24.542Z,100575.63
2023-05-05T02:51:58.295Z,100573.34
2023-05-05T02:54:29.340Z,100571.63
2023-05-05T02:56:58.011Z,100584.03
2023-05-05T02:59:53.137Z,100578.66
2023-05-05T03:02:39.160Z,100582.97
2023-05-05T03:05:21.564Z,100584.63
2023-05-05T03:08:00.483Z,100585.25
2023-05-05T03:10:31.383Z,100588.53
2023-05-05T03:13:03.023Z,100586.44
2023-05-05T03:15:45.067Z,100591.19
2023-05-05T03:18:15.796Z,100593.88
2023-05-05T03:20:46.862Z,100595.94
2023-05-05T03:23:18.562Z,100609.38
2023-05-05T03:25:47.254Z,100591.41
2023-05-05T03:28:35.505Z,100593.09
2023-05-05T03:31:08.828Z,100584.72
2023-05-05T03:33:37.871Z,100586.00
2023-05-05T03:36:05.000Z,100587.25
2023-05-05T03:38:32.581Z,100587.66
2023-05-05T03:41:26.059Z,100580.19
2023-05-05T03:43:53.769Z,100580.19
2023-05-05T03:46:20.847Z,100574.31
2023-05-05T03:48:48.853Z,100578.50
2023-05-05T03:51:15.951Z,100581.81
2023-05-05T03:53:43.044Z,100575.44
2023-05-05T03:56:10.743Z,100579.00
2023-05-05T03:58:37.723Z,100575.91
2023-05-05T04:01:05.234Z,100586.66
2023-05-05T04:03:32.329Z,100577.16
2023-05-05T04:05:59.548Z,100583.56
2023-05-05T04:08:26.744Z,100581.28
2023-05-05T04:10:53.687Z,100584.22
2023-05-05T04:13:21.251Z,100582.63
2023-05-05T04:15:48.753Z,100577.03
2023-05-05T04:18:17.224Z,100580.34
2023-05-05T04:20:44.557Z,100584.47
2023-05-05T04:23:12.205Z,100576.16
2023-05-05T04:25:39.780Z,100578.63
2023-05-05T04:28:06.769Z,100572.22
2023-05-05T04:30:33.660Z,100576.34
2023-05-05T04:33:01.139Z,100576.38
2023-05-05T04:35:28.479Z,100576.16
2023-05-05T04:37:55.821Z,100577.19
2023-05-05T04:40:23.199Z,100580.59
2023-05-05T04:42:51.219Z,100584.47
2023-05-05T04:45:18.306Z,100588.59
2023-05-05T04:47:45.812Z,100582.13
2023-05-05T04:50:12.936Z,100588.53
2023-05-05T04:52:40.448Z,100591.69
2023-05-05T04:55:09.737Z,100591.25
2023-05-05T04:57:36.828Z,100578.88
2023-05-05T05:00:06.553Z,100580.41
2023-05-05T05:02:33.890Z,100579.31
2023-05-05T05:05:01.182Z,100581.78
2023-05-05T05:07:28.181Z,100582.94
2023-05-05T05:09:55.235Z,100583.66
2023-05-05T05:12:22.416Z,100578.13
2023-05-05T05:14:50.553Z,100587.22
2023-05-05T05:17:17.945Z,100585.84
2023-05-05T05:19:45.029Z,100589.44
2023-05-05T05:22:12.215Z,100587.31
2023-05-05T05:24:41.113Z,100583.81
2023-05-05T05:27:10.339Z,100592.91
2023-05-05T05:29:39.958Z,100594.56
2023-05-05T05:32:07.175Z,100595.69
2023-05-05T05:34:34.463Z,100589.56
2023-05-05T05:37:02.567Z,100596.16
2023-05-05T05:39:29.589Z,100597.81
2023-05-05T05:41:56.798Z,100598.09
2023-05-05T05:44:23.894Z,100596.75
2023-05-05T05:46:51.258Z,100604.53
2023-05-05T05:49:18.299Z,100594.69
2023-05-05T05:51:45.801Z,100598.88
2023-05-05T05:54:12.822Z,100597.22
2023-05-05T05:56:41.106Z,100597.25
2023-05-05T05:59:10.278Z,100603.63
2023-05-05T06:01:40.611Z,100607.78
2023-05-05T06:04:08.270Z,100604.78
2023-05-05T06:06:35.626Z,100609.47
2023-05-05T06:09:02.756Z,100602.63
2023-05-05T06:11:31.915Z,100602.59
2023-05-05T06:13:59.948Z,100603.78
2023-05-05T06:16:27.055Z,100601.56
2023-05-05T06:18:54.583Z,100600.59
2023-05-05T06:21:21.634Z,100604.00
2023-05-05T06:23:48.682Z,100604.69
2023-05-05T06:26:16.124Z,100612.09
2023-05-05T06:28:43.300Z,100615.75
2023-05-05T06:31:10.317Z,100616.00
2023-05-05T06:33:37.337Z,100609.78
2023-05-05T06:36:04.560Z,100616.94
2023-05-05T06:38:31.672Z,100621.88
2023-05-05T06:40:58.864Z,100615.47
2023-05-05T06:43:26.006Z,100614.03
2023-05-05T06:45:57.617Z,100615.31
2023-05-05T06:48:24.686Z,100607.72
2023-05-05T06:50:51.680Z,100608.09
2023-05-05T06:53:18.626Z,100608.66
2023-05-05T06:55:47.333Z,100610.06
2023-05-05T06:58:14.274Z,100608.44
2023-05-05T07:00:41.756Z,100597.22
2023-05-05T07:03:08.818Z,100607.34
2023-05-05T07:05:35.860Z,100601.75
2023-05-05T07:08:02.840Z,100611.47
2023-05-05T07:10:29.826Z,100604.78
2023-05-05T07:12:56.901Z,100601.59
2023-05-05T07:15:29.413Z,100593.88
2023-05-05T07:17:57.499Z,100596.69
2023-05-05T07:20:24.804Z,100591.44
2023-05-05T07:22:51.843Z,100594.38
2023-05-05T07:25:18.937Z,100591.78
2023-05-05T07:27:46.127Z,100588.66
2023-05-05T07:30:17.362Z,100589.97
2023-05-05T07:32:45.256Z,100585.03
2023-05-05T07:35:19.096Z,100577.56
2023-05-05T07:37:46.599Z,100571.03
2023-05-05T07:40:13.676Z,100574.72
2023-05-05T07:42:40.700Z,100574.47
2023-05-05T07:45:08.426Z,100568.19
2023-05-05T07:47:35.744Z,100566.22
2023-05-05T07:50:02.744Z,100559.03
2023-05-05T07:52:44.127Z,100565.94
2023-05-05T07:55:13.462Z,100559.16
2023-05-05T07:57:40.558Z,100556.88
2023-05-05T08:00:08.489Z,100553.06
2023-05-05T08:02:41.965Z,100557.97
2023-05-05T08:05:09.756Z,100561.28
2023-05-05T08:07:41.475Z,100554.66
2023-05-05T08:10:12.430Z,100557.34
2023-05-05T08:12:40.035Z,100556.78
2023-05-05T08:15:07.928Z,100562.75
2023-05-05T08:17:49.251Z,100559.19
2023-05-05T08:20:18.611Z,100562.22
2023-05-05T08:22:46.401Z,100562.94
2023-05-05T08:25:14.474Z,100563.75
2023-05-05T08:27:43.042Z,100558.25
2023-05-05T08:30:10.664Z,100568.16
2023-05-05T08:32:38.654Z,100558.88
2023-05-05T08:35:07.056Z,100556.63
2023-05-05T08:37:34.970Z,100563.78
2023-05-05T08:40:02.023Z,100556.59
2023-05-05T08:42:38.212Z,100558.69
2023-05-05T08:45:08.790Z,100557.44
2023-05-05T08:47:37.206Z,100558.41
2023-05-05T08:50:06.178Z,100556.22
2023-05-05T08:52:45.555Z,100545.31
2023-05-05T08:55:24.432Z,100546.09
2023-05-05T08:57:54.834Z,100553.41
2023-05-05T09:00:22.685Z,100547.50
2023-05-05T09:02:50.268Z,100546.59
2023-05-05T09:05:18.135Z,100540.09
2023-05-05T09:07:46.992Z,100540.91
2023-05-05T09:10:13.983Z,100537.09
2023-05-05T09:12:42.713Z,100539.31
2023-05-05T09:15:11.895Z,100531.41
2023-05-05T09:17:40.032Z,100538.97
2023-05-05T09:20:08.695Z,100534.06
2023-05-05T09:22:39.864Z,100534.38
2023-05-05T09:25:10.053Z,100539.59
2023-05-05T09:27:39.040Z,100539.88
2023-05-05T09:30:07.086Z,100526.56
2023-05-05T09:32:47.808Z,100530.91
2023-05-05T09:35:16.447Z,100528.19
2023-05-05T09:37:43.958Z,100524.16
2023-05-05T09:40:19.639Z,100523.59
2023-05-05T09:42:46.933Z,100517.03
2023-05-05T09:45:20.088Z,100519.22
2023-05-05T09:47:48.394Z,100517.53
2023-05-05T09:50:19.174Z,100513.22
2023-05-05T09:53:01.015Z,100519.47
2023-05-05T09:55:28.747Z,100512.34
2023-05-05T09:57:56.022Z,100510.75
2023-05-05T10:00:30.663Z,100511.28
2023-05-05T10:03:03.294Z,100502.78
2023-05-05T10:05:30.604Z,100495.44
2023-05-05T10:08:13.491Z,100502.28
2023-05-05T10:10:51.719Z,100495.13
2023-05-05T10:13:21.017Z,100484.47
2023-05-05T10:15:51.411Z,100496.00
2023-05-05T10:18:24.473Z,100488.31
2023-05-05T10:20:58.029Z,100487.47
2023-05-05T10:23:32.483Z,100484.72
2023-05-05T10:26:05.848Z,100482.81
2023-05-05T10:28:44.126Z,100477.63
2023-05-05T10:31:29.754Z,100471.03
2023-05-05T10:34:02.818Z,100468.03
2023-05-05T10:36:32.031Z,100472.41
2023-05-05T10:39:00.426Z,100458.72
2023-05-05T10:41:28.846Z,100462.47
2023-05-05T10:43:57.756Z,100451.81
2023-05-05T10:46:27.051Z,100449.59
2023-05-05T10:49:17.910Z,100459.13
2023-05-05T10:51:56.996Z,100447.84
2023-05-05T10:54:32.966Z,100448.25
2023-05-05T10:57:05.075Z,100442.69
2023-05-05T10:59:38.386Z,100447.28
2023-05-05T11:02:17.907Z,100438.69
2023-05-05T11:05:03.227Z,100435.09
2023-05-05T11:07:30.253Z,100423.47
2023-05-05T11:10:05.522Z,100422.47
2023-05-05T11:12:53.720Z,100429.91
2023-05-05T11:15:26.607Z,100419.84
2023-05-05T11:18:01.921Z,100415.69
2023-05-05T11:20:40.010Z,100421.00
2023-05-05T11:23:07.154Z,100416.00
2023-05-05T11:25:41.228Z,100415.09
2023-05-05T11:28:21.194Z,100413.69
2023-05-05T11:31:18.220Z,100393.66
2023-05-05T11:33:45.439Z,100398.09
2023-05-05T11:36:18.084Z,100405.53
2023-05-05T11:39:19.565Z,100393.22
2023-05-05T11:44:21.112Z,100396.59
2023-05-05T11:46:51.164Z,100396.19
2023-05-05T11:49:33.360Z,100386.28
2023-05-05T11:52:09.518Z,100377.53
2023-05-05T11:54:50.807Z,100377.81
2023-05-05T11:57:21.889Z,100370.97
2023-05-05T11:59:54.942Z,100374.19
2023-05-05T12:02:22.544Z,100379.56
2023-05-05T12:04:50.193Z,100372.03
2023-05-05T12:07:18.672Z,100367.53
2023-05-05T12:09:47.412Z,100366.47
2023-05-05T12:12:15.486Z,100362.91
2023-05-05T12:14:53.151Z,100365.00
2023-05-05T12:17:21.281Z,100366.81
2023-05-05T12:19:51.052Z,100360.59
2023-05-05T12:22:22.568Z,100362.00
2023-05-05T12:24:59.944Z,100359.38
2023-05-05T12:27:28.400Z,100358.78
2023-05-05T12:29:56.998Z,100351.19
2023-05-05T12:32:26.403Z,100348.88
2023-05-05T12:34:57.748Z,100344.69
2023-05-05T12:37:26.486Z,100341.28
2023-05-05T12:39:56.645Z,100351.59
2023-05-05T12:42:23.702Z,100349.06
2023-05-05T12:44:50.877Z,100341.78
2023-05-05T12:47:31.960Z,100340.09
2023-05-05T12:50:00.790Z,100337.47
2023-05-05T12:52:45.027Z,100325.13
2023-05-05T12:55:13.067Z,100319.63
2023-05-05T12:58:00.644Z,100329.13
2023-05-05T13:00:27.818Z,100318.03
2023-05-05T13:02:54.943Z,100316.56
2023-05-05T13:05:36.736Z,100312.91
2023-05-05T13:08:03.818Z,100312.97
2023-05-05T13:10:31.589Z,100297.81
2023-05-05T13:12:58.809Z,100292.78
2023-05-05T13:15:26.391Z,100295.09
2023-05-05T13:18:03.074Z,100287.66
2023-05-05T13:20:30.096Z,100293.34
2023-05-05T13:22:57.527Z,100284.69
2023-05-05T13:25:24.595Z,100283.16
2023-05-05T13:27:51.638Z,100280.50
2023-05-05T13:30:18.583Z,100275.34
2023-05-05T13:32:45.602Z,100274.56
2023-05-05T13:35:14.763Z,100272.09
2023-05-05T13:37:44.536Z,100270.06
2023-05-05T13:40:13.574Z,100269.22
2023-05-05T13:42:40.569Z,100261.03
2023-05-05T13:45:08.045Z,100264.09
2023-05-05T13:47:35.305Z,100263.84
2023-05-05T13:50:02.524Z,100260.28
2023-05-05T13:52:31.108Z,100249.19
2023-05-05T13:54:59.116Z,100251.53
2023-05-05T13:57:26.705Z,100253.97
2023-05-05T13:59:53.737Z,100245.38
2023-05-05T14:02:20.771Z,100249.41
2023-05-05T14:04:47.697Z,100252.41
2023-05-05T14:07:14.839Z,100249.31
2023-05-05T14:09:41.987Z,100240.94
2023-05-05T14:12:09.004Z,100240.44
2023-05-05T14:14:36.335Z,100244.09
2023-05-05T14:17:03.425Z,100239.00
2023-05-05T14:19:30.385Z,100242.41
2023-05-05T14:21:57.815Z,100241.59
2023-05-05T14:24:24.816Z,100235.16
2023-05-05T14:26:51.775Z,100230.88
2023-05-05T14:29:18.822Z,100238.53
2023-05-05T14:31:45.802Z,100230.44
2023-05-05T14:34:13.006Z,100233.88
2023-05-05T14:36:39.885Z,100223.97
2023-05-05T14:39:07.205Z,100226.78
2023-05-05T14:41:34.080Z,100223.09
2023-05-05T14:44:01.071Z,100227.22
2023-05-05T14:46:28.280Z,100232.72
2023-05-05T14:48:55.355Z,100230.19
2023-05-05T14:51:22.403Z,100223.91
2023-05-05T14:53:49.440Z,100231.69
2023-05-05T14:56:17.246Z,100231.84
2023-05-05T14:58:44.277Z,100224.72
2023-05-05T15:01:11.385Z,100223.69
2023-05-05T15:03:38.498Z,100227.41
2023-05-05T15:06:06.046Z,100224.50
2023-05-05T15:08:33.123Z,100224.03
2023-05-05T15:11:00.028Z,100224.44
2023-05-05T15:13:26.998Z,100219.25
2023-05-05T15:15:53.943Z,100214.91
2023-05-05T15:18:21.117Z,100213.38
2023-05-05T15:20:48.116Z,100211.03
2023-05-05T15:23:15.585Z,100205.25
2023-05-05T15:25:42.576Z,100206.69
2023-05-05T15:28:09.520Z,100200.78
2023-05-05T15:30:36.661Z,100201.34
2023-05-05T15:33:03.858Z,100200.88
2023-05-05T15:35:31.038Z,100193.38
2023-05-05T15:37:58.013Z,100203.06
2023-05-05T15:40:25.138Z,100193.78
2023-05-05T15:42:52.160Z,100184.09
2023-05-05T15:45:19.320Z,100186.25
2023-05-05T15:47:46.510Z,100186.09
2023-05-05T15:50:13.934Z,100190.31
2023-05-05T15:52:40.946Z,100186.91
2023-05-05T15:55:08.877Z,100182.59
2023-05-05T15:57:36.207Z,100182.09
2023-05-05T16:00:03.401Z,100181.00
2023-05-05T16:02:34.694Z,100173.31
2023-05-05T16:05:01.772Z,100180.53
2023-05-05T16:07:28.694Z,100179.38
2023-05-05T16:09:56.988Z,100175.91
2023-05-05T16:12:24.009Z,100178.94
2023-05-05T16:14:51.000Z,100173.38
2023-05-05T16:17:17.901Z,100177.53
2023-05-05T16:19:44.994Z,100176.31
2023-05-05T16:22:12.135Z,100180.31
2023-05-05T16:24:39.408Z,100168.47
2023-05-05T16:27:06.445Z,100169.28
2023-05-05T16:29:33.458Z,100178.06
2023-05-05T16:32:00.828Z,100167.69
2023-05-05T16:34:27.876Z,100166.28
2023-05-05T16:36:54.787Z,100175.50
2023-05-05T16:39:21.863Z,100175.84
2023-05-05T16:41:48.809Z,100166.91
2023-05-05T16:44:16.060Z,100171.34
2023-05-05T16:46:43.099Z,100163.75
2023-05-05T16:49:10.151Z,100174.53
2023-05-05T16:51:37.137Z,100162.25
2023-05-05T16:54:04.285Z,100163.56
2023-05-05T16:56:31.197Z,100165.63
2023-05-05T16:58:58.280Z,100164.09
2023-05-05T17:01:25.288Z,100159.69
2023-05-05T17:03:52.297Z,100160.19
2023-05-05T17:06:19.377Z,100165.50
2023-05-05T17:08:46.301Z,100163.16
2023-05-05T17:11:13.344Z,100164.13
2023-05-05T17:13:40.369Z,100160.72
2023-05-05T17:16:07.357Z,100157.25
2023-05-05T17:18:34.442Z,100167.94
2023-05-05T17:21:01.417Z,100165.91
2023-05-05T17:23:28.355Z,100167.41
2023-05-05T17:25:55.308Z,100160.72
2023-05-05T17:28:22.671Z,100172.03
2023-05-05T17:30:49.526Z,100160.41
2023-05-05T17:33:20.983Z,100170.41
2023-05-05T17:35:48.644Z,100169.53
2023-05-05T17:38:15.840Z,100169.19
2023-05-05T17:40:43.346Z,100183.28
2023-05-05T17:43:10.495Z,100189.75
2023-05-05T17:45:37.522Z,100184.72
2023-05-05T17:48:04.757Z,100179.09
2023-05-05T17:50:31.752Z,100187.09
2023-05-05T17:52:58.715Z,100185.50
2023-05-05T17:55:25.988Z,100185.06
2023-05-05T17:57:53.013Z,100182.13
2023-05-05T18:00:20.909Z,100186.59
2023-05-05T18:02:53.051Z,100184.69
2023-05-05T18:05:20.843Z,100189.41
2023-05-05T18:07:47.756Z,100186.66
2023-05-05T18:10:14.820Z,100197.88
2023-05-05T18:12:41.901Z,100196.03
2023-05-05T18:15:09.541Z,100199.00
2023-05-05T18:17:36.627Z,100194.94
2023-05-05T18:20:06.896Z,100197.94
2023-05-05T18:22:34.374Z,100204.19
2023-05-05T18:25:01.275Z,100202.81
2023-05-05T18:27:28.947Z,100205.84
2023-05-05T18:29:55.912Z,100205.03
2023-05-05T18:32:24.046Z,100211.31
2023-05-05T18:34:50.987Z,100217.31
2023-05-05T18:37:17.963Z,100219.75
2023-05-05T18:39:45.420Z,100216.44
2023-05-05T18:42:13.231Z,100227.34
2023-05-05T18:44:40.192Z,100221.06
2023-05-05T18:47:08.016Z,100224.84
2023-05-05T18:49:35.165Z,100224.25
2023-05-05T18:52:02.062Z,100227.25
2023-05-05T18:54:29.176Z,100224.25
2023-05-05T18:56:56.320Z,100231.03
2023-05-05T18:59:23.262Z,100227.44
2023-05-05T19:01:50.291Z,100232.59
2023-05-05T19:04:30.245Z,100224.44
2023-05-05T19:06:58.192Z,100236.13
2023-05-05T19:09:25.190Z,100232.50
2023-05-05T19:11:53.293Z,100233.81
2023-05-05T19:14:20.368Z,100239.78
2023-05-05T19:16:47.334Z,100239.25
2023-05-05T19:19:14.615Z,100232.91
2023-05-05T19:21:41.655Z,100240.00
2023-05-05T19:24:09.238Z,100239.16
2023-05-05T19:26:36.261Z,100230.16
2023-05-05T19:29:03.515Z,100233.09
2023-05-05T19:31:31.453Z,100233.59
2023-05-05T19:34:01.592Z,100247.16
2023-05-05T19:36:29.164Z,100242.41
2023-05-05T19:38:56.169Z,100244.50
2023-05-05T19:41:23.419Z,100246.94
2023-05-05T19:43:50.350Z,100248.00
2023-05-05T19:46:17.487Z,100243.78
2023-05-05T19:48:44.580Z,100250.56
2023-05-05T19:51:11.658Z,100244.72
2023-05-05T19:53:40.331Z,100246.94
2023-05-05T19:56:07.694Z,100244.19
2023-05-05T19:58:53.402Z,100236.19
2023-05-05T20:01:20.474Z,100245.66
2023-05-05T20:03:51.343Z,100242.06
2023-05-05T20:06:18.451Z,100242.06
2023-05-05T20:08:45.566Z,100237.81
2023-05-05T20:11:14.297Z,100242.22
2023-05-05T20:13:41.748Z,100238.00
2023-05-05T20:16:09.163Z,100237.78
2023-05-05T20:18:38.088Z,100240.38
2023-05-05T20:21:05.269Z,100234.09
2023-05-05T20:23:32.326Z,100237.34
2023-05-05T20:25:59.405Z,100238.47
2023-05-05T20:28:27.106Z,100237.09
2023-05-05T20:30:54.321Z,100226.50
2023-05-05T20:33:21.286Z,100228.72
2023-05-05T20:35:48.355Z,100229.19
2023-05-05T20:38:15.232Z,100230.06
2023-05-05T20:40:42.352Z,100225.94
2023-05-05T20:43:09.291Z,100231.03
2023-05-05T20:45:37.383Z,100231.97
2023-05-05T20:48:05.732Z,100225.03
2023-05-05T20:50:33.089Z,100229.78
2023-05-05T20:53:02.666Z,100223.28
2023-05-05T20:55:29.724Z,100222.94
2023-05-05T20:57:56.697Z,100219.78
2023-05-05T21:00:26.525Z,100218.63
2023-05-05T21:02:53.814Z,100217.69
2023-05-05T21:05:21.189Z,100217.03
2023-05-05T21:07:48.094Z,100224.03
2023-05-05T21:10:15.063Z,100220.09
2023-05-05T21:12:42.056Z,100217.59
2023-05-05T21:15:09.965Z,100211.69
2023-05-05T21:17:37.358Z,100207.53
2023-05-05T21:20:04.665Z,100204.16
2023-05-05T21:22:31.824Z,100210.34
2023-05-05T21:25:17.505Z,100215.63
2023-05-05T21:27:45.741Z,100220.13
2023-05-05T21:30:13.188Z,100218.34
2023-05-05T21:32:41.166Z,100223.59
2023-05-05T21:35:09.430Z,100222.00
2023-05-05T21:37:39.813Z,100219.94
2023-05-05T21:40:11.266Z,100220.56
2023-05-05T21:42:38.485Z,100230.50
2023-05-05T21:45:05.761Z,100221.91
2023-05-05T21:47:32.795Z,100229.22
2023-05-05T21:49:59.791Z,100234.47
2023-05-05T21:52:26.825Z,100236.00
2023-05-05T21:54:53.778Z,100228.34
2023-05-05T21:57:20.886Z,100237.69
2023-05-05T21:59:47.855Z,100232.41
2023-05-05T22:02:14.873Z,100239.59
2023-05-05T22:04:41.776Z,100233.25
2023-05-05T22:07:08.693Z,100246.03
2023-05-05T22:09:35.915Z,100242.50
2023-05-05T22:12:03.063Z,100238.19
2023-05-05T22:14:30.293Z,100236.66
2023-05-05T22:16:57.284Z,100241.13
2023-05-05T22:19:24.264Z,100247.75
2023-05-05T22:21:51.248Z,100228.09
2023-05-05T22:24:18.182Z,100237.19
2023-05-05T22:26:45.257Z,100247.97
2023-05-05T22:29:12.338Z,100242.44
2023-05-05T22:31:39.968Z,100241.19
2023-05-05T22:34:07.263Z,100232.03
2023-05-05T22:36:34.226Z,100234.13
2023-05-05T22:39:01.261Z,100232.81
2023-05-05T22:41:28.386Z,100231.66
2023-05-05T22:44:03.358Z,100239.09
2023-05-05T22:46:30.451Z,100238.00
2023-05-05T22:48:57.402Z,100228.94
2023-05-05T22:51:24.342Z,100235.66
2023-05-05T22:53:51.353Z,100241.53
2023-05-05T22:56:18.326Z,100236.94
2023-05-05T22:58:46.766Z,100237.41
2023-05-05T23:01:13.905Z,100235.38
2023-05-05T23:03:41.718Z,100236.81
2023-05-05T23:06:08.790Z,100228.97
2023-05-05T23:08:35.790Z,100233.56
2023-05-05T23:11:02.794Z,100236.59
2023-05-05T23:13:31.055Z,100233.28
2023-05-05T23:15:58.017Z,100233.97
2023-05-05T23:18:24.992Z,100234.88
2023-05-05T23:20:52.074Z,100230.75
2023-05-05T23:23:18.951Z,100221.97
2023-05-05T23:25:45.947Z,100218.44
2023-05-05T23:28:12.989Z,100222.47
2023-05-05T23:30:40.056Z,100223.09
2023-05-05T23:33:07.067Z,100220.97
2023-05-05T23:35:34.520Z,100223.91
2023-05-05T23:38:01.568Z,100215.44
2023-05-05T23:40:28.522Z,100215.88
2023-05-05T23:42:55.465Z,100214.84
2023-05-05T23:45:22.428Z,100216.25
2023-05-05T23:47:49.760Z,100207.56
2023-05-05T23:50:16.772Z,100218.25
2023-05-05T23:52:43.682Z,100206.59
2023-05-05T23:55:10.863Z,100202.47
2023-05-05T23:57:38.127Z,100198.47
